createdAt,value
2019-02-06T00:00:52.863Z,12.27
2019-02-06T00:03:21.718Z,11.57
2019-02-06T00:05:50.467Z,11.47
2019-02-06T00:08:19.333Z,10.60
2019-02-06T00:10:47.821Z,11.07
2019-02-06T00:13:16.324Z,11.57
2019-02-06T00:15:44.753Z,10.37
2019-02-06T00:18:13.337Z,11.13
2019-02-06T00:20:41.805Z,11.00
2019-02-06T00:23:10.696Z,11.23
2019-02-06T00:25:38.792Z,10.77
2019-02-06T00:28:07.348Z,11.27
2019-02-06T00:30:35.593Z,11.23
2019-02-06T00:33:05.828Z,10.43
2019-02-06T00:35:34.703Z,10.90
2019-02-06T00:38:05.249Z,10.87
2019-02-06T00:40:33.680Z,13.23
2019-02-06T00:43:01.744Z,10.83
2019-02-06T00:45:30.452Z,11.27
2019-02-06T00:47:58.912Z,10.73
2019-02-06T00:50:27.720Z,11.00
2019-02-06T00:52:56.194Z,11.87
2019-02-06T00:55:24.606Z,10.73
2019-02-06T00:57:53.164Z,13.30
2019-02-06T01:00:23.503Z,11.07
2019-02-06T01:02:53.061Z,10.27
2019-02-06T01:05:22.397Z,10.30
2019-02-06T01:07:50.981Z,11.17
2019-02-06T01:10:21.403Z,9.57
2019-02-06T01:12:50.275Z,10.93
2019-02-06T01:15:18.697Z,9.77
2019-02-06T01:17:47.156Z,11.70
2019-02-06T01:20:18.016Z,7.53
2019-02-06T01:22:47.164Z,8.60
2019-02-06T01:25:17.381Z,9.83
2019-02-06T01:27:46.008Z,9.37
2019-02-06T01:30:26.320Z,11.27
2019-02-06T01:32:55.217Z,11.17
2019-02-06T01:35:24.004Z,10.07
2019-02-06T01:37:52.498Z,10.50
2019-02-06T01:40:22.145Z,9.17
2019-02-06T01:42:50.558Z,10.77
2019-02-06T01:45:22.261Z,9.93
2019-02-06T01:47:50.672Z,9.90
2019-02-06T01:50:19.528Z,11.57
2019-02-06T01:52:48.296Z,10.10
2019-02-06T01:55:17.036Z,9.30
2019-02-06T01:57:45.607Z,10.47
2019-02-06T02:00:24.700Z,12.43
2019-02-06T02:02:53.661Z,10.23
2019-02-06T02:05:26.476Z,9.57
2019-02-06T02:07:54.882Z,9.57
2019-02-06T02:10:23.736Z,11.33
2019-02-06T02:12:52.208Z,10.37
2019-02-06T02:15:21.160Z,9.73
2019-02-06T02:17:49.729Z,10.17
2019-02-06T02:20:20.274Z,9.40
2019-02-06T02:22:48.780Z,10.00
2019-02-06T02:25:17.516Z,8.83
2019-02-06T02:27:46.679Z,12.50
2019-02-06T02:30:22.517Z,8.87
2019-02-06T02:32:51.215Z,9.53
2019-02-06T02:35:19.807Z,10.73
2019-02-06T02:37:48.796Z,10.27
2019-02-06T02:40:17.277Z,9.97
2019-02-06T02:42:45.367Z,9.80
2019-02-06T02:45:17.003Z,11.60
2019-02-06T02:47:49.526Z,9.50
2019-02-06T02:50:18.111Z,11.10
2019-02-06T02:52:46.481Z,10.87
2019-02-06T02:55:15.260Z,11.20
2019-02-06T02:57:43.332Z,8.43
2019-02-06T03:00:20.989Z,9.87
2019-02-06T03:02:51.016Z,9.70
2019-02-06T03:05:20.906Z,9.27
2019-02-06T03:07:49.303Z,9.17
2019-02-06T03:10:17.721Z,14.90
2019-02-06T03:12:46.203Z,8.53
2019-02-06T03:15:14.789Z,10.30
2019-02-06T03:17:43.211Z,10.93
2019-02-06T03:20:13.573Z,11.00
2019-02-06T03:22:42.363Z,8.67
2019-02-06T03:25:13.339Z,9.37
2019-02-06T03:27:42.019Z,9.50
2019-02-06T03:30:13.741Z,10.70
2019-02-06T03:32:43.342Z,9.83
2019-02-06T03:35:12.893Z,9.17
2019-02-06T03:37:41.439Z,9.00
2019-02-06T03:40:15.636Z,8.50
2019-02-06T03:42:44.133Z,9.30
2019-02-06T03:45:13.887Z,7.07
2019-02-06T03:47:42.366Z,7.70
2019-02-06T03:50:18.589Z,7.10
2019-02-06T03:52:47.497Z,8.47
2019-02-06T03:55:16.344Z,7.00
2019-02-06T03:57:45.091Z,8.80
2019-02-06T04:00:16.892Z,9.33
2019-02-06T04:06:07.520Z,7.63
2019-02-06T04:08:36.727Z,8.77
2019-02-06T04:11:05.402Z,8.63
2019-02-06T04:13:33.838Z,6.10
2019-02-06T04:16:02.251Z,8.50
2019-02-06T04:18:30.657Z,6.97
2019-02-06T04:20:59.478Z,9.30
2019-02-06T04:23:27.955Z,6.10
2019-02-06T04:25:56.665Z,9.60
2019-02-06T04:28:25.076Z,7.87
2019-02-06T04:30:53.485Z,7.20
2019-02-06T04:33:21.919Z,8.03
2019-02-06T04:35:50.312Z,9.27
2019-02-06T04:38:18.720Z,6.77
2019-02-06T04:40:47.128Z,8.23
2019-02-06T04:43:15.544Z,11.53
2019-02-06T04:45:43.943Z,8.10
2019-02-06T04:48:12.525Z,9.37
2019-02-06T04:50:40.929Z,10.63
2019-02-06T04:53:09.816Z,10.50
2019-02-06T04:55:38.229Z,8.93
2019-02-06T04:58:06.649Z,8.30
2019-02-06T05:00:35.059Z,9.43
2019-02-06T05:03:03.642Z,9.60
2019-02-06T05:05:32.289Z,9.27
2019-02-06T05:08:00.709Z,8.87
2019-02-06T05:10:29.773Z,7.47
2019-02-06T05:13:17.535Z,7.97
2019-02-06T05:15:46.065Z,7.77
2019-02-06T05:18:14.473Z,8.77
2019-02-06T05:20:50.443Z,8.63
2019-02-06T05:23:19.058Z,9.20
2019-02-06T05:25:47.489Z,10.90
2019-02-06T05:28:18.268Z,8.63
2019-02-06T05:30:46.027Z,8.97
2019-02-06T05:33:14.416Z,8.27
2019-02-06T05:35:42.857Z,9.20
2019-02-06T05:38:11.256Z,7.47
2019-02-06T05:40:39.682Z,8.13
2019-02-06T05:43:08.082Z,7.30
2019-02-06T05:45:36.165Z,7.03
2019-02-06T05:48:05.175Z,8.07
2019-02-06T05:50:33.589Z,7.17
2019-02-06T05:53:02.073Z,7.90
2019-02-06T05:55:34.982Z,8.47
2019-02-06T05:58:04.936Z,8.63
2019-02-06T06:00:36.872Z,7.40
2019-02-06T06:03:04.925Z,7.13
2019-02-06T06:05:36.140Z,5.97
2019-02-06T06:08:04.853Z,6.50
2019-02-06T06:10:33.274Z,7.40
2019-02-06T06:13:01.745Z,6.10
2019-02-06T06:15:29.832Z,6.77
2019-02-06T06:17:58.228Z,6.70
2019-02-06T06:20:26.313Z,9.00
2019-02-06T06:22:54.729Z,8.80
2019-02-06T06:25:23.149Z,6.53
2019-02-06T06:27:51.540Z,7.07
2019-02-06T06:30:20.895Z,6.27
2019-02-06T06:32:49.929Z,6.43
2019-02-06T06:35:18.348Z,7.60
2019-02-06T06:37:57.464Z,8.00
2019-02-06T06:40:20.670Z,8.33
2019-02-06T06:42:49.660Z,8.70
2019-02-06T06:45:23.261Z,9.57
2019-02-06T06:47:52.536Z,7.87
2019-02-06T06:50:23.276Z,9.07
2019-02-06T06:52:52.123Z,8.37
2019-02-06T06:55:20.600Z,6.67
2019-02-06T06:57:49.153Z,8.03
2019-02-06T07:00:25.824Z,6.63
2019-02-06T07:02:54.304Z,9.47
2019-02-06T07:05:24.313Z,6.87
2019-02-06T07:07:53.665Z,7.63
2019-02-06T07:10:22.160Z,8.40
2019-02-06T07:12:51.240Z,9.13
2019-02-06T07:15:31.400Z,8.37
2019-02-06T07:18:00.339Z,7.00
2019-02-06T07:20:29.572Z,7.80
2019-02-06T07:22:58.561Z,7.57
2019-02-06T07:25:46.300Z,8.07
2019-02-06T07:28:17.405Z,6.23
2019-02-06T07:30:46.170Z,7.80
2019-02-06T07:33:14.587Z,8.27
2019-02-06T07:35:43.741Z,8.60
2019-02-06T07:38:23.640Z,8.70
2019-02-06T07:40:42.283Z,8.63
2019-02-06T07:43:10.714Z,7.70
2019-02-06T07:45:39.345Z,8.57
2019-02-06T07:48:08.172Z,7.97
2019-02-06T07:50:37.168Z,8.37
2019-02-06T07:53:05.584Z,8.77
2019-02-06T07:55:34.069Z,7.97
2019-02-06T07:58:02.551Z,8.33
2019-02-06T08:00:30.623Z,8.77
2019-02-06T08:03:01.151Z,8.67
2019-02-06T08:05:29.844Z,8.87
2019-02-06T08:07:58.728Z,8.20
2019-02-06T08:10:32.768Z,9.17
2019-02-06T08:13:00.912Z,9.30
2019-02-06T08:15:29.401Z,9.13
2019-02-06T08:17:57.814Z,9.70
2019-02-06T08:20:26.445Z,9.77
2019-02-06T08:22:55.473Z,9.77
2019-02-06T08:25:25.228Z,9.97
2019-02-06T08:27:53.628Z,9.00
2019-02-06T08:30:27.520Z,9.70
2019-02-06T08:32:56.124Z,8.87
2019-02-06T08:35:24.666Z,9.67
2019-02-06T08:37:53.788Z,8.47
2019-02-06T08:40:23.132Z,8.93
2019-02-06T08:42:51.622Z,8.70
2019-02-06T08:45:20.367Z,8.17
2019-02-06T08:47:48.459Z,9.07
2019-02-06T08:50:22.367Z,9.13
2019-02-06T08:52:51.015Z,9.17
2019-02-06T08:55:23.564Z,10.33
2019-02-06T08:57:52.407Z,10.90
2019-02-06T09:00:26.649Z,9.60
2019-02-06T09:02:55.321Z,9.80
2019-02-06T09:05:23.475Z,10.27
2019-02-06T09:07:51.873Z,10.33
2019-02-06T09:10:23.691Z,10.97
2019-02-06T09:12:53.325Z,9.20
2019-02-06T09:15:21.412Z,10.37
2019-02-06T09:17:49.994Z,10.70
2019-02-06T09:20:21.224Z,10.43
2019-02-06T09:22:49.651Z,9.37
2019-02-06T09:25:20.422Z,9.93
2019-02-06T09:27:49.102Z,10.67
2019-02-06T09:30:20.330Z,11.90
2019-02-06T09:32:48.769Z,10.63
2019-02-06T09:35:17.183Z,10.90
2019-02-06T09:37:46.273Z,10.83
2019-02-06T09:40:20.337Z,11.80
2019-02-06T09:42:48.744Z,13.33
2019-02-06T09:45:17.491Z,11.93
2019-02-06T09:47:45.969Z,11.90
2019-02-06T09:50:15.582Z,12.07
2019-02-06T09:52:44.268Z,12.97
2019-02-06T09:55:12.824Z,12.60
2019-02-06T09:57:41.604Z,10.90
2019-02-06T10:00:13.924Z,10.77
2019-02-06T10:02:42.345Z,13.43
2019-02-06T10:05:10.499Z,11.80
2019-02-06T10:07:39.396Z,10.93
2019-02-06T10:10:09.140Z,10.17
2019-02-06T10:12:37.556Z,10.03
2019-02-06T10:15:09.185Z,11.13
2019-02-06T10:17:37.633Z,10.53
2019-02-06T10:20:09.108Z,12.03
2019-02-06T10:22:37.910Z,13.57
2019-02-06T10:25:06.856Z,12.00
2019-02-06T10:27:35.353Z,11.57
2019-02-06T10:30:05.864Z,11.57
2019-02-06T10:32:34.268Z,11.27
2019-02-06T10:35:02.526Z,11.17
2019-02-06T10:37:31.412Z,10.90
2019-02-06T10:39:59.814Z,10.50
2019-02-06T10:42:27.902Z,11.67
2019-02-06T10:44:56.468Z,12.70
2019-02-06T10:47:24.552Z,11.97
2019-02-06T10:49:53.028Z,11.17
2019-02-06T10:52:21.856Z,12.33
2019-02-06T10:54:50.781Z,11.60
2019-02-06T10:57:19.041Z,11.93
2019-02-06T10:59:47.457Z,12.10
2019-02-06T11:02:16.052Z,11.00
2019-02-06T11:04:49.316Z,11.30
2019-02-06T11:07:18.052Z,11.73
2019-02-06T11:09:46.728Z,11.37
2019-02-06T11:12:14.864Z,10.87
2019-02-06T11:14:44.904Z,9.27
2019-02-06T11:17:16.128Z,8.97
2019-02-06T11:19:44.608Z,10.10
2019-02-06T11:22:13.004Z,10.27
2019-02-06T11:24:41.088Z,10.57
2019-02-06T11:27:09.743Z,10.47
2019-02-06T11:29:38.352Z,9.40
2019-02-06T11:32:06.445Z,10.17
2019-02-06T11:34:35.029Z,10.90
2019-02-06T11:37:03.448Z,9.70
2019-02-06T11:39:31.612Z,9.60
2019-02-06T11:42:03.369Z,9.30
2019-02-06T11:44:31.796Z,10.17
2019-02-06T11:47:03.298Z,10.20
2019-02-06T11:49:33.354Z,10.50
2019-02-06T11:52:01.922Z,9.63
2019-02-06T11:54:30.007Z,9.03
2019-02-06T11:56:58.597Z,10.53
2019-02-06T11:59:27.028Z,11.50
2019-02-06T12:01:55.513Z,10.97
2019-02-06T12:04:23.596Z,10.67
2019-02-06T12:06:51.767Z,10.80
2019-02-06T12:09:20.706Z,9.83
2019-02-06T12:11:49.280Z,10.27
2019-02-06T12:14:18.032Z,9.80
2019-02-06T12:16:46.428Z,9.77
2019-02-06T12:19:14.516Z,10.20
2019-02-06T12:21:42.977Z,9.93
2019-02-06T12:24:11.388Z,9.80
2019-02-06T12:26:39.789Z,10.00
2019-02-06T12:29:08.251Z,9.53
2019-02-06T12:31:36.323Z,10.07
2019-02-06T12:34:04.726Z,9.23
2019-02-06T12:36:33.154Z,11.73
2019-02-06T12:39:01.555Z,11.80
2019-02-06T12:41:29.968Z,11.43
2019-02-06T12:43:58.371Z,11.50
2019-02-06T12:46:26.456Z,11.30
2019-02-06T12:48:54.860Z,11.47
2019-02-06T12:51:23.557Z,11.07
2019-02-06T12:53:51.625Z,10.00
2019-02-06T12:56:20.119Z,11.37
2019-02-06T12:58:48.536Z,10.73
2019-02-06T13:01:18.497Z,10.47
2019-02-06T13:03:46.899Z,10.67
2019-02-06T13:06:15.338Z,9.33
2019-02-06T13:08:43.789Z,9.73
2019-02-06T13:11:12.649Z,9.63
2019-02-06T13:13:41.072Z,9.30
2019-02-06T13:16:09.484Z,8.03
2019-02-06T13:18:37.886Z,8.60
2019-02-06T13:21:06.625Z,9.00
2019-02-06T13:23:35.461Z,9.00
2019-02-06T13:26:04.053Z,9.30
2019-02-06T13:28:32.962Z,9.30
2019-02-06T13:31:01.370Z,10.27
2019-02-06T13:33:29.812Z,9.83
2019-02-06T13:36:00.764Z,10.03
2019-02-06T13:38:29.168Z,9.73
2019-02-06T13:40:57.592Z,10.70
2019-02-06T13:43:25.985Z,9.93
2019-02-06T13:45:54.465Z,10.07
2019-02-06T13:48:22.864Z,9.00
2019-02-06T13:50:51.537Z,10.67
2019-02-06T13:53:20.326Z,9.47
2019-02-06T13:55:49.279Z,10.57
2019-02-06T13:58:20.154Z,10.80
2019-02-06T14:00:47.906Z,8.40
2019-02-06T14:03:16.488Z,11.57
2019-02-06T14:05:46.918Z,11.90
2019-02-06T14:08:15.939Z,10.80
2019-02-06T14:10:57.085Z,11.87
2019-02-06T14:13:15.282Z,12.20
2019-02-06T14:15:46.240Z,12.63
2019-02-06T14:18:15.121Z,11.50
2019-02-06T14:20:45.100Z,12.23
2019-02-06T14:23:25.323Z,13.70
2019-02-06T14:26:05.657Z,13.63
2019-02-06T14:28:44.946Z,12.83
2019-02-06T14:31:16.083Z,13.33
2019-02-06T14:33:57.136Z,13.40
2019-02-06T14:37:02.284Z,12.50
2019-02-06T14:39:50.274Z,13.37
2019-02-06T14:42:22.845Z,12.13
2019-02-06T14:44:58.145Z,12.17
2019-02-06T14:47:39.028Z,12.03
2019-02-06T14:50:22.413Z,13.37
2019-02-06T14:53:02.996Z,11.63
2019-02-06T14:55:53.872Z,11.70
2019-02-06T14:58:51.143Z,11.27
2019-02-06T15:01:42.304Z,10.00
2019-02-06T15:04:16.596Z,12.20
2019-02-06T15:06:50.810Z,10.97
2019-02-06T15:09:44.900Z,11.07
2019-02-06T15:12:32.696Z,11.67
2019-02-06T15:15:11.287Z,11.90
2019-02-06T15:18:11.457Z,12.50
2019-02-06T15:21:04.459Z,10.60
2019-02-06T15:23:51.384Z,12.47
2019-02-06T15:26:34.605Z,11.70
2019-02-06T15:29:09.464Z,12.13
2019-02-06T15:32:15.898Z,11.70
2019-02-06T15:34:56.325Z,11.33
2019-02-06T15:37:47.612Z,12.83
2019-02-06T15:40:50.623Z,13.40
2019-02-06T15:43:41.684Z,13.20
2019-02-06T15:46:30.705Z,13.00
2019-02-06T15:49:20.174Z,13.33
2019-02-06T15:51:49.800Z,13.03
2019-02-06T15:54:30.043Z,13.33
2019-02-06T15:57:17.822Z,14.87
2019-02-06T16:00:01.673Z,12.93
2019-02-06T16:02:41.945Z,13.80
2019-02-06T16:05:23.639Z,12.13
2019-02-06T16:08:00.891Z,13.83
2019-02-06T16:10:46.888Z,12.13
2019-02-06T16:13:21.579Z,13.53
2019-02-06T16:15:51.201Z,13.93
2019-02-06T16:18:22.683Z,13.17
2019-02-06T16:20:58.289Z,11.97
2019-02-06T16:23:27.904Z,13.63
2019-02-06T16:26:02.061Z,13.97
2019-02-06T16:28:49.960Z,12.93
2019-02-06T16:31:45.801Z,13.70
2019-02-06T16:34:17.304Z,13.07
2019-02-06T16:36:54.468Z,14.33
2019-02-06T16:39:29.093Z,13.80
2019-02-06T16:42:00.596Z,12.50
2019-02-06T16:44:50.814Z,14.80
2019-02-06T16:47:28.042Z,13.13
2019-02-06T16:50:14.117Z,13.53
2019-02-06T16:53:14.196Z,13.43
2019-02-06T16:56:03.231Z,13.93
2019-02-06T16:58:43.544Z,14.07
2019-02-06T17:01:33.293Z,15.27
2019-02-06T17:04:26.081Z,14.50
2019-02-06T17:07:08.979Z,14.10
2019-02-06T17:10:00.524Z,14.50
2019-02-06T17:12:34.844Z,14.43
2019-02-06T17:15:20.809Z,14.53
2019-02-06T17:17:58.315Z,12.77
2019-02-06T17:20:38.272Z,13.47
2019-02-06T17:23:37.214Z,13.57
2019-02-06T17:26:31.361Z,12.90
2019-02-06T17:29:03.633Z,13.83
2019-02-06T17:31:33.305Z,13.87
2019-02-06T17:34:13.660Z,11.73
2019-02-06T17:36:51.025Z,14.10
2019-02-06T17:39:39.057Z,14.67
2019-02-06T17:42:18.720Z,12.90
2019-02-06T17:44:59.061Z,13.40
2019-02-06T17:47:33.665Z,13.43
2019-02-06T17:50:26.401Z,13.23
2019-02-06T17:53:12.706Z,13.07
2019-02-06T17:55:42.653Z,13.93
2019-02-06T17:58:11.095Z,14.70
2019-02-06T18:00:42.589Z,13.60
2019-02-06T18:03:14.506Z,14.83
2019-02-06T18:05:43.198Z,14.67
2019-02-06T18:08:12.826Z,14.70
2019-02-06T18:10:41.376Z,13.20
2019-02-06T18:13:09.844Z,13.27
2019-02-06T18:15:38.405Z,12.17
2019-02-06T18:18:06.821Z,15.27
2019-02-06T18:20:35.312Z,12.73
2019-02-06T18:23:05.189Z,12.30
2019-02-06T18:25:40.456Z,12.90
2019-02-06T18:28:08.863Z,12.43
2019-02-06T18:30:37.348Z,12.33
2019-02-06T18:33:07.468Z,11.47
2019-02-06T18:35:36.276Z,12.27
2019-02-06T18:38:06.309Z,10.93
2019-02-06T18:40:34.541Z,11.03
2019-02-06T18:43:02.629Z,10.70
2019-02-06T18:45:31.136Z,9.83
2019-02-06T18:48:02.060Z,10.10
2019-02-06T18:50:33.635Z,10.73
2019-02-06T18:53:03.253Z,10.07
2019-02-06T18:55:32.155Z,9.47
2019-02-06T18:58:02.171Z,9.20
2019-02-06T19:00:36.713Z,8.23
2019-02-06T19:03:11.104Z,9.50
2019-02-06T19:05:39.659Z,10.43
2019-02-06T19:08:08.900Z,7.13
2019-02-06T19:10:37.408Z,8.43
2019-02-06T19:13:08.288Z,8.93
2019-02-06T19:15:36.725Z,9.50
2019-02-06T19:18:06.397Z,12.00
2019-02-06T19:20:35.760Z,12.27
2019-02-06T19:23:04.916Z,12.73
2019-02-06T19:25:34.905Z,11.53
2019-02-06T19:28:03.394Z,11.53
2019-02-06T19:30:36.629Z,12.60
2019-02-06T19:33:05.640Z,11.60
2019-02-06T19:35:34.057Z,12.03
2019-02-06T19:38:02.485Z,10.67
2019-02-06T19:40:30.908Z,9.27
2019-02-06T19:43:02.842Z,7.97
2019-02-06T19:45:31.531Z,11.13
2019-02-06T19:48:01.954Z,9.43
2019-02-06T19:50:41.969Z,11.40
2019-02-06T19:53:10.442Z,9.73
2019-02-06T19:55:39.003Z,10.77
2019-02-06T19:58:08.798Z,11.27
2019-02-06T20:00:37.363Z,11.80
2019-02-06T20:03:08.175Z,11.87
2019-02-06T20:05:37.236Z,13.00
2019-02-06T20:08:07.596Z,11.13
2019-02-06T20:10:45.477Z,12.90
2019-02-06T20:13:14.674Z,12.07
2019-02-06T20:15:43.252Z,12.00
2019-02-06T20:18:11.713Z,12.90
2019-02-06T20:20:40.346Z,11.50
2019-02-06T20:23:09.149Z,12.67
2019-02-06T20:25:37.822Z,11.73
2019-02-06T20:28:07.777Z,10.83
2019-02-06T20:30:36.496Z,12.17
2019-02-06T20:33:07.375Z,11.90
2019-02-06T20:35:37.986Z,9.83
2019-02-06T20:38:06.400Z,10.70
2019-02-06T20:40:35.951Z,12.83
2019-02-06T20:43:04.885Z,11.00
2019-02-06T20:45:33.460Z,12.00
2019-02-06T20:48:01.877Z,12.77
2019-02-06T20:50:31.894Z,14.60
2019-02-06T20:53:00.912Z,15.07
2019-02-06T20:55:28.997Z,13.10
2019-02-06T20:57:57.493Z,13.37
2019-02-06T21:00:40.228Z,12.60
2019-02-06T21:03:08.767Z,11.90
2019-02-06T21:05:37.228Z,13.53
2019-02-06T21:08:05.879Z,12.90
2019-02-06T21:10:36.118Z,12.37
2019-02-06T21:13:05.999Z,12.33
2019-02-06T21:15:34.802Z,13.63
2019-02-06T21:18:03.395Z,13.90
2019-02-06T21:20:31.895Z,12.77
2019-02-06T21:23:00.793Z,13.83
2019-02-06T21:25:29.339Z,12.27
2019-02-06T21:27:57.836Z,14.27
2019-02-06T21:30:28.654Z,13.23
2019-02-06T21:32:56.762Z,14.00
2019-02-06T21:35:25.677Z,12.73
2019-02-06T21:37:54.195Z,13.00
2019-02-06T21:40:26.277Z,12.10
2019-02-06T21:42:54.833Z,13.70
2019-02-06T21:45:23.310Z,14.47
2019-02-06T21:47:51.808Z,13.13
2019-02-06T21:50:24.528Z,11.33
2019-02-06T21:52:53.472Z,14.73
2019-02-06T21:55:24.189Z,12.07
2019-02-06T21:57:52.851Z,13.23
2019-02-06T22:00:27.444Z,11.57
2019-02-06T22:02:55.921Z,13.70
2019-02-06T22:05:24.504Z,15.17
2019-02-06T22:07:53.550Z,12.80
2019-02-06T22:10:22.092Z,13.60
2019-02-06T22:12:50.536Z,12.47
2019-02-06T22:15:24.482Z,12.53
2019-02-06T22:17:52.692Z,12.23
2019-02-06T22:20:21.273Z,11.07
2019-02-06T22:22:51.264Z,11.60
2019-02-06T22:25:19.953Z,13.27
2019-02-06T22:27:50.503Z,14.53
2019-02-06T22:30:20.188Z,13.27
2019-02-06T22:32:48.758Z,13.20
2019-02-06T22:35:17.427Z,12.60
2019-02-06T22:37:45.909Z,11.23
2019-02-06T22:40:16.661Z,12.87
2019-02-06T22:42:45.480Z,13.67
2019-02-06T22:45:17.539Z,12.87
2019-02-06T22:47:46.017Z,14.63
2019-02-06T22:50:15.382Z,14.50
2019-02-06T22:52:43.788Z,13.87
2019-02-06T22:55:16.412Z,11.40
2019-02-06T22:57:47.823Z,12.57
2019-02-06T23:00:51.456Z,13.40
2019-02-06T23:03:34.449Z,11.97
2019-02-06T23:06:03.881Z,12.00
2019-02-06T23:08:32.306Z,11.00
2019-02-06T23:11:01.267Z,11.83
2019-02-06T23:13:30.449Z,12.07
2019-02-06T23:15:59.439Z,13.07
2019-02-06T23:18:27.861Z,12.77
2019-02-06T23:20:56.025Z,12.13
2019-02-06T23:23:24.111Z,13.20
2019-02-06T23:25:55.589Z,11.47
2019-02-06T23:28:24.096Z,12.10
2019-02-06T23:30:52.291Z,12.33
2019-02-06T23:33:22.233Z,11.83
2019-02-06T23:35:50.637Z,12.73
2019-02-06T23:38:19.041Z,12.73
2019-02-06T23:40:47.905Z,11.33
2019-02-06T23:43:15.984Z,11.23
2019-02-06T23:45:44.413Z,10.63
2019-02-06T23:48:12.918Z,10.87
2019-02-06T23:50:41.530Z,10.07
2019-02-06T23:53:10.128Z,11.50
2019-02-06T23:55:38.213Z,11.37
2019-02-06T23:58:06.688Z,10.43
